sensor_id;sensor_type;location;lat;lon;timestamp;temperature;humidity
69162;DHT22;56269;51.738;21.652;2024-01-30T00:01:29;-0.29;99.43
69162;DHT22;56269;51.738;21.652;2024-01-30T00:03:55;-0.32;99.27
69162;DHT22;56269;51.738;21.652;2024-01-30T00:06:21;-0.39;99.44
69162;DHT22;56269;51.738;21.652;2024-01-30T00:08:48;-0.43;99.43
69162;DHT22;56269;51.738;21.652;2024-01-30T00:11:15;-0.40;99.57
69162;DHT22;56269;51.738;21.652;2024-01-30T00:13:41;-0.46;99.45
69162;DHT22;56269;51.738;21.652;2024-01-30T00:16:08;-0.42;99.59
69162;DHT22;56269;51.738;21.652;2024-01-30T00:18:35;-0.43;99.55
69162;DHT22;56269;51.738;21.652;2024-01-30T00:21:02;-0.42;99.60
69162;DHT22;56269;51.738;21.652;2024-01-30T00:23:28;-0.46;99.59
69162;DHT22;56269;51.738;21.652;2024-01-30T00:25:55;-0.56;99.70
69162;DHT22;56269;51.738;21.652;2024-01-30T00:28:24;-0.50;99.68
69162;DHT22;56269;51.738;21.652;2024-01-30T00:30:50;-0.57;99.72
69162;DHT22;56269;51.738;21.652;2024-01-30T00:33:16;-0.53;99.71
69162;DHT22;56269;51.738;21.652;2024-01-30T00:35:42;-0.57;99.68
69162;DHT22;56269;51.738;21.652;2024-01-30T00:38:08;-0.57;99.72
69162;DHT22;56269;51.738;21.652;2024-01-30T00:40:34;-0.59;99.80
69162;DHT22;56269;51.738;21.652;2024-01-30T00:43:00;-0.61;99.96
69162;DHT22;56269;51.738;21.652;2024-01-30T00:45:27;-0.59;99.79
69162;DHT22;56269;51.738;21.652;2024-01-30T00:47:53;-0.53;99.69
69162;DHT22;56269;51.738;21.652;2024-01-30T00:50:19;-0.52;99.67
69162;DHT22;56269;51.738;21.652;2024-01-30T00:52:45;-0.50;99.44
69162;DHT22;56269;51.738;21.652;2024-01-30T00:55:12;-0.44;99.47
69162;DHT22;56269;51.738;21.652;2024-01-30T00:57:38;-0.49;99.37
69162;DHT22;56269;51.738;21.652;2024-01-30T01:00:05;-0.50;99.41
69162;DHT22;56269;51.738;21.652;2024-01-30T01:02:34;-0.49;99.37
69162;DHT22;56269;51.738;21.652;2024-01-30T01:05:00;-0.54;99.43
69162;DHT22;56269;51.738;21.652;2024-01-30T01:07:26;-0.60;99.47
69162;DHT22;56269;51.738;21.652;2024-01-30T01:09:53;-0.54;99.42
69162;DHT22;56269;51.738;21.652;2024-01-30T01:12:19;-0.57;99.52
69162;DHT22;56269;51.738;21.652;2024-01-30T01:14:45;-0.46;99.57
69162;DHT22;56269;51.738;21.652;2024-01-30T01:17:11;-0.52;99.22
69162;DHT22;56269;51.738;21.652;2024-01-30T01:19:38;-0.52;99.36
69162;DHT22;56269;51.738;21.652;2024-01-30T01:22:04;-0.57;99.37
69162;DHT22;56269;51.738;21.652;2024-01-30T01:24:33;-0.60;99.46
69162;DHT22;56269;51.738;21.652;2024-01-30T01:26:59;-0.56;99.34
69162;DHT22;56269;51.738;21.652;2024-01-30T01:29:26;-0.61;99.54
69162;DHT22;56269;51.738;21.652;2024-01-30T01:31:55;-0.67;99.53
69162;DHT22;56269;51.738;21.652;2024-01-30T01:34:22;-0.67;99.55
69162;DHT22;56269;51.738;21.652;2024-01-30T01:36:50;-0.67;99.60
69162;DHT22;56269;51.738;21.652;2024-01-30T01:39:16;-0.67;99.53
69162;DHT22;56269;51.738;21.652;2024-01-30T01:41:43;-0.67;99.58
69162;DHT22;56269;51.738;21.652;2024-01-30T01:44:09;-0.70;99.46
69162;DHT22;56269;51.738;21.652;2024-01-30T01:46:36;-0.69;99.58
69162;DHT22;56269;51.738;21.652;2024-01-30T01:49:04;-0.73;99.62
69162;DHT22;56269;51.738;21.652;2024-01-30T01:51:33;-0.74;99.66
69162;DHT22;56269;51.738;21.652;2024-01-30T01:54:03;-0.74;99.60
69162;DHT22;56269;51.738;21.652;2024-01-30T01:56:30;-0.76;99.51
69162;DHT22;56269;51.738;21.652;2024-01-30T01:59:00;-0.71;99.59
69162;DHT22;56269;51.738;21.652;2024-01-30T02:01:27;-0.74;99.45
69162;DHT22;56269;51.738;21.652;2024-01-30T02:03:55;-0.70;99.58
69162;DHT22;56269;51.738;21.652;2024-01-30T02:06:21;-0.70;99.55
69162;DHT22;56269;51.738;21.652;2024-01-30T02:08:47;-0.69;99.47
69162;DHT22;56269;51.738;21.652;2024-01-30T02:11:13;-0.67;99.45
69162;DHT22;56269;51.738;21.652;2024-01-30T02:13:41;-0.70;99.47
69162;DHT22;56269;51.738;21.652;2024-01-30T02:16:07;-0.76;99.46
69162;DHT22;56269;51.738;21.652;2024-01-30T02:18:33;-0.81;99.53
69162;DHT22;56269;51.738;21.652;2024-01-30T02:21:03;-0.81;99.57
69162;DHT22;56269;51.738;21.652;2024-01-30T02:23:30;-0.80;99.70
69162;DHT22;56269;51.738;21.652;2024-01-30T02:25:56;-0.71;99.55
69162;DHT22;56269;51.738;21.652;2024-01-30T02:28:22;-0.84;99.46
69162;DHT22;56269;51.738;21.652;2024-01-30T02:30:48;-0.81;99.48
69162;DHT22;56269;51.738;21.652;2024-01-30T02:33:17;-0.80;99.46
69162;DHT22;56269;51.738;21.652;2024-01-30T02:35:43;-0.76;99.54
69162;DHT22;56269;51.738;21.652;2024-01-30T02:38:09;-0.84;99.41
69162;DHT22;56269;51.738;21.652;2024-01-30T02:40:35;-0.83;99.51
69162;DHT22;56269;51.738;21.652;2024-01-30T02:43:03;-0.87;99.57
69162;DHT22;56269;51.738;21.652;2024-01-30T02:45:29;-0.90;99.52
69162;DHT22;56269;51.738;21.652;2024-01-30T02:47:55;-0.91;99.60
69162;DHT22;56269;51.738;21.652;2024-01-30T02:50:21;-0.95;99.62
69162;DHT22;56269;51.738;21.652;2024-01-30T02:52:47;-0.95;99.70
69162;DHT22;56269;51.738;21.652;2024-01-30T02:55:13;-0.97;99.67
69162;DHT22;56269;51.738;21.652;2024-01-30T02:57:40;-0.94;99.74
69162;DHT22;56269;51.738;21.652;2024-01-30T03:00:06;-0.94;99.80
69162;DHT22;56269;51.738;21.652;2024-01-30T03:02:35;-0.95;99.67
69162;DHT22;56269;51.738;21.652;2024-01-30T03:05:02;-0.91;99.67
69162;DHT22;56269;51.738;21.652;2024-01-30T03:07:30;-0.98;99.63
69162;DHT22;56269;51.738;21.652;2024-01-30T03:09:56;-0.97;99.71
69162;DHT22;56269;51.738;21.652;2024-01-30T03:12:22;-0.95;99.73
69162;DHT22;56269;51.738;21.652;2024-01-30T03:14:48;-1.00;99.55
69162;DHT22;56269;51.738;21.652;2024-01-30T03:17:15;-1.01;99.66
69162;DHT22;56269;51.738;21.652;2024-01-30T03:19:41;-1.00;99.69
69162;DHT22;56269;51.738;21.652;2024-01-30T03:22:08;-0.94;99.70
69162;DHT22;56269;51.738;21.652;2024-01-30T03:24:34;-1.00;99.65
69162;DHT22;56269;51.738;21.652;2024-01-30T03:27:00;-1.02;99.66
69162;DHT22;56269;51.738;21.652;2024-01-30T03:29:27;-1.04;99.63
69162;DHT22;56269;51.738;21.652;2024-01-30T03:31:53;-1.07;99.74
69162;DHT22;56269;51.738;21.652;2024-01-30T03:34:19;-1.11;99.78
69162;DHT22;56269;51.738;21.652;2024-01-30T03:36:45;-1.11;99.78
69162;DHT22;56269;51.738;21.652;2024-01-30T03:39:11;-1.12;99.74
69162;DHT22;56269;51.738;21.652;2024-01-30T03:41:37;-1.16;99.85
69162;DHT22;56269;51.738;21.652;2024-01-30T03:44:03;-1.16;99.86
69162;DHT22;56269;51.738;21.652;2024-01-30T03:46:30;-1.19;99.86
69162;DHT22;56269;51.738;21.652;2024-01-30T03:48:56;-1.18;99.98
69162;DHT22;56269;51.738;21.652;2024-01-30T03:51:22;-1.22;99.84
69162;DHT22;56269;51.738;21.652;2024-01-30T03:53:48;-1.30;99.94
69162;DHT22;56269;51.738;21.652;2024-01-30T03:56:14;-1.28;99.99
69162;DHT22;56269;51.738;21.652;2024-01-30T03:58:40;-1.31;99.99
69162;DHT22;56269;51.738;21.652;2024-01-30T04:01:07;-1.28;99.99
69162;DHT22;56269;51.738;21.652;2024-01-30T04:03:33;-1.22;99.99
69162;DHT22;56269;51.738;21.652;2024-01-30T04:05:59;-1.25;99.96
69162;DHT22;56269;51.738;21.652;2024-01-30T04:08:25;-1.25;99.99
69162;DHT22;56269;51.738;21.652;2024-01-30T04:10:52;-1.28;99.98
69162;DHT22;56269;51.738;21.652;2024-01-30T04:13:17;-1.27;99.99
69162;DHT22;56269;51.738;21.652;2024-01-30T04:15:44;-1.24;99.98
69162;DHT22;56269;51.738;21.652;2024-01-30T04:18:10;-1.30;99.83
69162;DHT22;56269;51.738;21.652;2024-01-30T04:20:36;-1.32;99.85
69162;DHT22;56269;51.738;21.652;2024-01-30T04:23:03;-1.32;99.99
69162;DHT22;56269;51.738;21.652;2024-01-30T04:25:29;-1.30;99.99
69162;DHT22;56269;51.738;21.652;2024-01-30T04:27:55;-1.31;99.83
69162;DHT22;56269;51.738;21.652;2024-01-30T04:30:21;-1.31;99.85
69162;DHT22;56269;51.738;21.652;2024-01-30T04:32:47;-1.32;99.96
69162;DHT22;56269;51.738;21.652;2024-01-30T04:35:14;-1.35;99.96
69162;DHT22;56269;51.738;21.652;2024-01-30T04:37:40;-1.38;99.99
69162;DHT22;56269;51.738;21.652;2024-01-30T04:40:06;-1.42;99.99
69162;DHT22;56269;51.738;21.652;2024-01-30T04:42:32;-1.35;99.99
69162;DHT22;56269;51.738;21.652;2024-01-30T04:44:59;-1.34;99.99
69162;DHT22;56269;51.738;21.652;2024-01-30T04:47:25;-1.38;99.93
69162;DHT22;56269;51.738;21.652;2024-01-30T04:49:51;-1.34;99.98
69162;DHT22;56269;51.738;21.652;2024-01-30T04:52:17;-1.36;99.97
69162;DHT22;56269;51.738;21.652;2024-01-30T04:54:43;-1.41;99.96
69162;DHT22;56269;51.738;21.652;2024-01-30T04:57:09;-1.41;99.99
69162;DHT22;56269;51.738;21.652;2024-01-30T04:59:38;-1.39;99.99
69162;DHT22;56269;51.738;21.652;2024-01-30T05:02:04;-1.46;99.99
69162;DHT22;56269;51.738;21.652;2024-01-30T05:04:30;-1.46;99.99
69162;DHT22;56269;51.738;21.652;2024-01-30T05:06:56;-1.42;99.99
69162;DHT22;56269;51.738;21.652;2024-01-30T05:09:22;-1.42;99.99
69162;DHT22;56269;51.738;21.652;2024-01-30T05:11:48;-1.41;99.99
69162;DHT22;56269;51.738;21.652;2024-01-30T05:14:15;-1.39;99.99
69162;DHT22;56269;51.738;21.652;2024-01-30T05:16:42;-1.36;99.89
69162;DHT22;56269;51.738;21.652;2024-01-30T05:19:15;-1.38;99.83
69162;DHT22;56269;51.738;21.652;2024-01-30T05:21:42;-1.42;99.92
69162;DHT22;56269;51.738;21.652;2024-01-30T05:24:10;-1.41;99.89
69162;DHT22;56269;51.738;21.652;2024-01-30T05:26:36;-1.42;99.99
69162;DHT22;56269;51.738;21.652;2024-01-30T05:29:06;-1.41;99.99
69162;DHT22;56269;51.738;21.652;2024-01-30T05:31:34;-1.43;99.84
69162;DHT22;56269;51.738;21.652;2024-01-30T05:34:00;-1.39;99.94
69162;DHT22;56269;51.738;21.652;2024-01-30T05:36:27;-1.45;99.99
69162;DHT22;56269;51.738;21.652;2024-01-30T05:38:53;-1.46;99.99
69162;DHT22;56269;51.738;21.652;2024-01-30T05:41:19;-1.49;99.99
69162;DHT22;56269;51.738;21.652;2024-01-30T05:43:47;-1.48;99.96
69162;DHT22;56269;51.738;21.652;2024-01-30T05:46:13;-1.49;99.99
69162;DHT22;56269;51.738;21.652;2024-01-30T05:48:39;-1.51;99.98
69162;DHT22;56269;51.738;21.652;2024-01-30T05:51:07;-1.49;99.96
69162;DHT22;56269;51.738;21.652;2024-01-30T05:53:34;-1.49;99.99
69162;DHT22;56269;51.738;21.652;2024-01-30T05:56:04;-1.52;99.97
69162;DHT22;56269;51.738;21.652;2024-01-30T05:58:30;-1.52;99.97
69162;DHT22;56269;51.738;21.652;2024-01-30T06:00:57;-1.55;99.94
69162;DHT22;56269;51.738;21.652;2024-01-30T06:03:23;-1.59;99.99
69162;DHT22;56269;51.738;21.652;2024-01-30T06:05:50;-1.53;99.99
69162;DHT22;56269;51.738;21.652;2024-01-30T06:08:17;-1.52;99.97
69162;DHT22;56269;51.738;21.652;2024-01-30T06:10:43;-1.52;99.88
69162;DHT22;56269;51.738;21.652;2024-01-30T06:13:10;-1.51;99.90
69162;DHT22;56269;51.738;21.652;2024-01-30T06:15:36;-1.52;99.84
69162;DHT22;56269;51.738;21.652;2024-01-30T06:18:02;-1.53;99.74
69162;DHT22;56269;51.738;21.652;2024-01-30T06:20:28;-1.49;99.82
69162;DHT22;56269;51.738;21.652;2024-01-30T06:22:54;-1.46;99.70
69162;DHT22;56269;51.738;21.652;2024-01-30T06:25:20;-1.48;99.65
69162;DHT22;56269;51.738;21.652;2024-01-30T06:27:47;-1.43;99.49
69162;DHT22;56269;51.738;21.652;2024-01-30T06:30:13;-1.51;99.48
69162;DHT22;56269;51.738;21.652;2024-01-30T06:32:39;-1.46;99.60
69162;DHT22;56269;51.738;21.652;2024-01-30T06:35:05;-1.39;99.43
69162;DHT22;56269;51.738;21.652;2024-01-30T06:37:32;-1.39;99.38
69162;DHT22;56269;51.738;21.652;2024-01-30T06:39:58;-1.32;99.36
69162;DHT22;56269;51.738;21.652;2024-01-30T06:42:24;-1.28;99.19
69162;DHT22;56269;51.738;21.652;2024-01-30T06:44:50;-1.25;99.18
69162;DHT22;56269;51.738;21.652;2024-01-30T06:47:17;-1.19;99.13
69162;DHT22;56269;51.738;21.652;2024-01-30T06:49:43;-1.15;99.09
69162;DHT22;56269;51.738;21.652;2024-01-30T06:52:09;-1.01;98.88
69162;DHT22;56269;51.738;21.652;2024-01-30T06:54:35;-0.90;98.73
69162;DHT22;56269;51.738;21.652;2024-01-30T06:57:03;-0.85;98.48
69162;DHT22;56269;51.738;21.652;2024-01-30T06:59:29;-0.73;98.28
69162;DHT22;56269;51.738;21.652;2024-01-30T07:01:55;-0.67;98.09
69162;DHT22;56269;51.738;21.652;2024-01-30T07:04:21;-0.57;98.01
69162;DHT22;56269;51.738;21.652;2024-01-30T07:06:47;-0.46;97.92
69162;DHT22;56269;51.738;21.652;2024-01-30T07:09:13;-0.34;97.78
69162;DHT22;56269;51.738;21.652;2024-01-30T07:11:39;-0.23;97.75
69162;DHT22;56269;51.738;21.652;2024-01-30T07:14:05;-0.15;97.77
69162;DHT22;56269;51.738;21.652;2024-01-30T07:16:32;-0.03;97.58
69162;DHT22;56269;51.738;21.652;2024-01-30T07:18:58;0.08;97.37
69162;DHT22;56269;51.738;21.652;2024-01-30T07:21:24;0.11;97.42
69162;DHT22;56269;51.738;21.652;2024-01-30T07:23:54;0.26;97.23
69162;DHT22;56269;51.738;21.652;2024-01-30T07:26:21;0.33;97.26
69162;DHT22;56269;51.738;21.652;2024-01-30T07:28:47;0.38;97.03
69162;DHT22;56269;51.738;21.652;2024-01-30T07:31:14;0.46;96.93
69162;DHT22;56269;51.738;21.652;2024-01-30T07:33:40;0.46;96.99
69162;DHT22;56269;51.738;21.652;2024-01-30T07:36:06;0.60;96.92
69162;DHT22;56269;51.738;21.652;2024-01-30T07:38:32;0.77;96.52
69162;DHT22;56269;51.738;21.652;2024-01-30T07:40:58;0.87;96.18
69162;DHT22;56269;51.738;21.652;2024-01-30T07:43:24;0.85;96.02
69162;DHT22;56269;51.738;21.652;2024-01-30T07:45:51;0.94;96.03
69162;DHT22;56269;51.738;21.652;2024-01-30T07:48:18;1.09;95.87
69162;DHT22;56269;51.738;21.652;2024-01-30T07:50:44;1.28;95.02
69162;DHT22;56269;51.738;21.652;2024-01-30T07:53:10;1.41;94.85
69162;DHT22;56269;51.738;21.652;2024-01-30T07:55:36;1.38;93.86
69162;DHT22;56269;51.738;21.652;2024-01-30T07:58:03;1.69;94.83
69162;DHT22;56269;51.738;21.652;2024-01-30T08:00:30;1.62;93.73
69162;DHT22;56269;51.738;21.652;2024-01-30T08:02:56;1.76;93.79
69162;DHT22;56269;51.738;21.652;2024-01-30T08:05:23;1.75;93.68
69162;DHT22;56269;51.738;21.652;2024-01-30T08:07:49;1.80;93.06
69162;DHT22;56269;51.738;21.652;2024-01-30T08:10:16;1.96;93.00
69162;DHT22;56269;51.738;21.652;2024-01-30T08:12:45;1.85;92.62
69162;DHT22;56269;51.738;21.652;2024-01-30T08:15:12;2.16;93.06
69162;DHT22;56269;51.738;21.652;2024-01-30T08:17:38;2.23;92.63
69162;DHT22;56269;51.738;21.652;2024-01-30T08:20:06;2.40;91.89
69162;DHT22;56269;51.738;21.652;2024-01-30T08:22:34;2.34;91.67
69162;DHT22;56269;51.738;21.652;2024-01-30T08:25:00;2.26;91.17
69162;DHT22;56269;51.738;21.652;2024-01-30T08:27:26;2.48;90.89
69162;DHT22;56269;51.738;21.652;2024-01-30T08:29:52;2.33;89.97
69162;DHT22;56269;51.738;21.652;2024-01-30T08:32:18;2.55;90.66
69162;DHT22;56269;51.738;21.652;2024-01-30T08:34:45;2.74;90.29
69162;DHT22;56269;51.738;21.652;2024-01-30T08:37:11;2.84;89.83
69162;DHT22;56269;51.738;21.652;2024-01-30T08:39:37;3.09;89.40
69162;DHT22;56269;51.738;21.652;2024-01-30T08:42:03;3.08;88.66
69162;DHT22;56269;51.738;21.652;2024-01-30T08:44:30;3.16;88.89
69162;DHT22;56269;51.738;21.652;2024-01-30T08:46:56;3.23;88.26
69162;DHT22;56269;51.738;21.652;2024-01-30T08:49:22;3.08;87.92
69162;DHT22;56269;51.738;21.652;2024-01-30T08:51:48;3.27;87.29
69162;DHT22;56269;51.738;21.652;2024-01-30T08:54:17;3.27;86.47
69162;DHT22;56269;51.738;21.652;2024-01-30T08:56:43;3.46;86.38
69162;DHT22;56269;51.738;21.652;2024-01-30T08:59:10;3.63;86.12
69162;DHT22;56269;51.738;21.652;2024-01-30T09:01:36;3.64;85.70
69162;DHT22;56269;51.738;21.652;2024-01-30T09:04:03;3.37;86.00
69162;DHT22;56269;51.738;21.652;2024-01-30T09:06:29;3.59;85.25
69162;DHT22;56269;51.738;21.652;2024-01-30T09:08:55;4.04;85.24
69162;DHT22;56269;51.738;21.652;2024-01-30T09:11:23;3.94;84.75
69162;DHT22;56269;51.738;21.652;2024-01-30T09:13:50;4.08;84.13
69162;DHT22;56269;51.738;21.652;2024-01-30T09:16:16;4.21;83.23
69162;DHT22;56269;51.738;21.652;2024-01-30T09:18:43;4.15;82.89
69162;DHT22;56269;51.738;21.652;2024-01-30T09:21:09;4.32;83.95
69162;DHT22;56269;51.738;21.652;2024-01-30T09:23:36;4.57;82.64
69162;DHT22;56269;51.738;21.652;2024-01-30T09:26:02;4.86;83.49
69162;DHT22;56269;51.738;21.652;2024-01-30T09:28:28;4.48;82.54
69162;DHT22;56269;51.738;21.652;2024-01-30T09:30:54;4.49;81.57
69162;DHT22;56269;51.738;21.652;2024-01-30T09:33:21;4.63;81.81
69162;DHT22;56269;51.738;21.652;2024-01-30T09:35:47;4.83;81.41
69162;DHT22;56269;51.738;21.652;2024-01-30T09:38:13;4.65;80.79
69162;DHT22;56269;51.738;21.652;2024-01-30T09:40:40;4.88;80.90
69162;DHT22;56269;51.738;21.652;2024-01-30T09:43:08;4.91;82.22
69162;DHT22;56269;51.738;21.652;2024-01-30T09:45:37;5.27;80.18
69162;DHT22;56269;51.738;21.652;2024-01-30T09:48:04;5.38;79.66
69162;DHT22;56269;51.738;21.652;2024-01-30T09:50:31;5.55;79.28
69162;DHT22;56269;51.738;21.652;2024-01-30T09:52:58;5.34;80.55
69162;DHT22;56269;51.738;21.652;2024-01-30T09:55:26;5.20;78.88
69162;DHT22;56269;51.738;21.652;2024-01-30T09:57:53;5.69;79.09
69162;DHT22;56269;51.738;21.652;2024-01-30T10:00:20;5.68;79.21
69162;DHT22;56269;51.738;21.652;2024-01-30T10:02:52;6.14;78.30
69162;DHT22;56269;51.738;21.652;2024-01-30T10:05:19;5.90;77.70
69162;DHT22;56269;51.738;21.652;2024-01-30T10:07:56;5.95;78.12
69162;DHT22;56269;51.738;21.652;2024-01-30T10:10:23;6.09;77.96
69162;DHT22;56269;51.738;21.652;2024-01-30T10:12:51;6.33;77.44
69162;DHT22;56269;51.738;21.652;2024-01-30T10:15:20;6.26;77.86
69162;DHT22;56269;51.738;21.652;2024-01-30T10:17:46;6.11;76.87
69162;DHT22;56269;51.738;21.652;2024-01-30T10:20:12;6.24;77.10
69162;DHT22;56269;51.738;21.652;2024-01-30T10:22:40;6.30;76.75
69162;DHT22;56269;51.738;21.652;2024-01-30T10:25:10;6.74;77.91
69162;DHT22;56269;51.738;21.652;2024-01-30T10:27:39;6.77;76.71
69162;DHT22;56269;51.738;21.652;2024-01-30T10:30:06;7.23;75.29
69162;DHT22;56269;51.738;21.652;2024-01-30T10:32:33;7.08;75.32
69162;DHT22;56269;51.738;21.652;2024-01-30T10:34:59;7.53;74.75
69162;DHT22;56269;51.738;21.652;2024-01-30T10:37:26;7.37;73.10
69162;DHT22;56269;51.738;21.652;2024-01-30T10:39:53;7.26;73.50
69162;DHT22;56269;51.738;21.652;2024-01-30T10:42:26;7.39;75.10
69162;DHT22;56269;51.738;21.652;2024-01-30T10:47:29;7.49;72.89
69162;DHT22;56269;51.738;21.652;2024-01-30T10:49:56;7.52;73.37
69162;DHT22;56269;51.738;21.652;2024-01-30T10:52:23;7.75;73.36
69162;DHT22;56269;51.738;21.652;2024-01-30T10:54:54;7.66;72.68
69162;DHT22;56269;51.738;21.652;2024-01-30T10:57:23;8.12;71.36
69162;DHT22;56269;51.738;21.652;2024-01-30T10:59:51;8.16;71.43
69162;DHT22;56269;51.738;21.652;2024-01-30T11:02:19;7.94;71.36
69162;DHT22;56269;51.738;21.652;2024-01-30T11:04:45;8.31;72.20
69162;DHT22;56269;51.738;21.652;2024-01-30T11:07:23;8.32;70.57
69162;DHT22;56269;51.738;21.652;2024-01-30T11:09:50;8.62;69.24
69162;DHT22;56269;51.738;21.652;2024-01-30T11:12:22;8.57;68.21
69162;DHT22;56269;51.738;21.652;2024-01-30T11:14:48;8.20;67.47
69162;DHT22;56269;51.738;21.652;2024-01-30T11:17:15;8.24;67.69
69162;DHT22;56269;51.738;21.652;2024-01-30T11:19:41;7.98;67.19
69162;DHT22;56269;51.738;21.652;2024-01-30T11:22:10;7.88;66.34
69162;DHT22;56269;51.738;21.652;2024-01-30T11:24:42;7.93;67.23
69162;DHT22;56269;51.738;21.652;2024-01-30T11:27:09;8.25;66.25
69162;DHT22;56269;51.738;21.652;2024-01-30T11:29:39;8.22;66.10
69162;DHT22;56269;51.738;21.652;2024-01-30T11:32:06;8.39;66.02
69162;DHT22;56269;51.738;21.652;2024-01-30T11:34:33;8.35;65.30
69162;DHT22;56269;51.738;21.652;2024-01-30T11:37:07;8.57;66.18
69162;DHT22;56269;51.738;21.652;2024-01-30T11:39:36;8.53;63.91
69162;DHT22;56269;51.738;21.652;2024-01-30T11:42:03;8.60;65.25
69162;DHT22;56269;51.738;21.652;2024-01-30T11:44:31;8.75;64.52
69162;DHT22;56269;51.738;21.652;2024-01-30T11:46:57;8.44;64.26
69162;DHT22;56269;51.738;21.652;2024-01-30T11:49:23;8.69;64.72
69162;DHT22;56269;51.738;21.652;2024-01-30T11:51:50;8.86;64.74
69162;DHT22;56269;51.738;21.652;2024-01-30T11:54:16;9.14;65.33
69162;DHT22;56269;51.738;21.652;2024-01-30T11:56:43;8.93;64.57
69162;DHT22;56269;51.738;21.652;2024-01-30T11:59:09;9.01;63.13
69162;DHT22;56269;51.738;21.652;2024-01-30T12:01:36;9.13;64.40
69162;DHT22;56269;51.738;21.652;2024-01-30T12:04:02;9.20;63.41
69162;DHT22;56269;51.738;21.652;2024-01-30T12:06:29;9.17;63.38
69162;DHT22;56269;51.738;21.652;2024-01-30T12:08:59;9.37;63.04
69162;DHT22;56269;51.738;21.652;2024-01-30T12:11:27;8.96;62.80
69162;DHT22;56269;51.738;21.652;2024-01-30T12:13:56;9.08;63.70
69162;DHT22;56269;51.738;21.652;2024-01-30T12:16:22;9.38;62.51
69162;DHT22;56269;51.738;21.652;2024-01-30T12:18:49;9.58;63.05
69162;DHT22;56269;51.738;21.652;2024-01-30T12:21:18;9.59;61.50
69162;DHT22;56269;51.738;21.652;2024-01-30T12:23:45;9.51;61.74
69162;DHT22;56269;51.738;21.652;2024-01-30T12:26:12;9.52;62.22
69162;DHT22;56269;51.738;21.652;2024-01-30T12:28:47;9.06;62.21
69162;DHT22;56269;51.738;21.652;2024-01-30T12:31:14;9.11;62.31
69162;DHT22;56269;51.738;21.652;2024-01-30T12:33:41;9.16;61.74
69162;DHT22;56269;51.738;21.652;2024-01-30T12:36:07;9.24;62.89
69162;DHT22;56269;51.738;21.652;2024-01-30T12:38:33;9.26;63.22
69162;DHT22;56269;51.738;21.652;2024-01-30T12:41:00;9.04;61.87
69162;DHT22;56269;51.738;21.652;2024-01-30T12:43:26;8.94;62.75
69162;DHT22;56269;51.738;21.652;2024-01-30T12:45:53;8.99;63.05
69162;DHT22;56269;51.738;21.652;2024-01-30T12:48:19;9.06;62.59
69162;DHT22;56269;51.738;21.652;2024-01-30T12:50:45;9.41;61.61
69162;DHT22;56269;51.738;21.652;2024-01-30T12:53:11;9.42;62.21
69162;DHT22;56269;51.738;21.652;2024-01-30T12:55:38;9.37;62.77
69162;DHT22;56269;51.738;21.652;2024-01-30T12:58:04;9.28;62.02
69162;DHT22;56269;51.738;21.652;2024-01-30T13:00:32;9.32;62.25
69162;DHT22;56269;51.738;21.652;2024-01-30T13:03:00;9.30;61.73
69162;DHT22;56269;51.738;21.652;2024-01-30T13:05:26;9.21;62.65
69162;DHT22;56269;51.738;21.652;2024-01-30T13:07:53;9.45;61.97
69162;DHT22;56269;51.738;21.652;2024-01-30T13:10:19;9.48;62.33
69162;DHT22;56269;51.738;21.652;2024-01-30T13:12:45;9.62;61.52
69162;DHT22;56269;51.738;21.652;2024-01-30T13:15:12;9.51;60.99
69162;DHT22;56269;51.738;21.652;2024-01-30T13:17:38;9.65;62.37
69162;DHT22;56269;51.738;21.652;2024-01-30T13:20:05;9.47;61.47
69162;DHT22;56269;51.738;21.652;2024-01-30T13:22:34;9.41;61.47
69162;DHT22;56269;51.738;21.652;2024-01-30T13:25:00;9.49;61.86
69162;DHT22;56269;51.738;21.652;2024-01-30T13:27:26;9.47;62.84
69162;DHT22;56269;51.738;21.652;2024-01-30T13:29:53;9.32;62.01
69162;DHT22;56269;51.738;21.652;2024-01-30T13:32:18;9.28;63.23
69162;DHT22;56269;51.738;21.652;2024-01-30T13:34:45;9.38;62.23
69162;DHT22;56269;51.738;21.652;2024-01-30T13:37:11;9.18;62.39
69162;DHT22;56269;51.738;21.652;2024-01-30T13:39:38;9.37;63.14
69162;DHT22;56269;51.738;21.652;2024-01-30T13:42:04;9.24;63.06
69162;DHT22;56269;51.738;21.652;2024-01-30T13:44:31;9.34;63.86
69162;DHT22;56269;51.738;21.652;2024-01-30T13:46:57;9.30;63.87
69162;DHT22;56269;51.738;21.652;2024-01-30T13:49:23;9.10;64.08
69162;DHT22;56269;51.738;21.652;2024-01-30T13:51:49;9.08;62.79
69162;DHT22;56269;51.738;21.652;2024-01-30T13:54:15;9.10;62.68
69162;DHT22;56269;51.738;21.652;2024-01-30T13:56:41;9.00;64.84
69162;DHT22;56269;51.738;21.652;2024-01-30T13:59:08;8.94;64.52
69162;DHT22;56269;51.738;21.652;2024-01-30T14:01:34;8.84;63.34
69162;DHT22;56269;51.738;21.652;2024-01-30T14:04:00;8.77;63.35
69162;DHT22;56269;51.738;21.652;2024-01-30T14:06:27;8.76;63.77
69162;DHT22;56269;51.738;21.652;2024-01-30T14:08:53;8.62;63.92
69162;DHT22;56269;51.738;21.652;2024-01-30T14:11:19;8.46;65.23
69162;DHT22;56269;51.738;21.652;2024-01-30T14:13:46;8.34;64.57
69162;DHT22;56269;51.738;21.652;2024-01-30T14:16:12;8.28;65.85
69162;DHT22;56269;51.738;21.652;2024-01-30T14:18:38;8.20;64.56
69162;DHT22;56269;51.738;21.652;2024-01-30T14:21:04;8.12;65.32
69162;DHT22;56269;51.738;21.652;2024-01-30T14:23:32;8.01;65.85
69162;DHT22;56269;51.738;21.652;2024-01-30T14:25:58;7.88;65.40
69162;DHT22;56269;51.738;21.652;2024-01-30T14:28:25;7.74;65.34
69162;DHT22;56269;51.738;21.652;2024-01-30T14:30:51;7.69;65.79
69162;DHT22;56269;51.738;21.652;2024-01-30T14:33:17;7.60;66.19
69162;DHT22;56269;51.738;21.652;2024-01-30T14:35:43;7.39;67.39
69162;DHT22;56269;51.738;21.652;2024-01-30T14:38:10;7.19;67.59
69162;DHT22;56269;51.738;21.652;2024-01-30T14:40:36;7.05;69.16
69162;DHT22;56269;51.738;21.652;2024-01-30T14:43:02;6.75;69.23
69162;DHT22;56269;51.738;21.652;2024-01-30T14:45:29;6.70;70.56
69162;DHT22;56269;51.738;21.652;2024-01-30T14:47:55;6.37;71.88
69162;DHT22;56269;51.738;21.652;2024-01-30T14:50:21;6.34;73.20
69162;DHT22;56269;51.738;21.652;2024-01-30T14:52:48;6.02;73.96
69162;DHT22;56269;51.738;21.652;2024-01-30T14:55:14;5.73;74.74
69162;DHT22;56269;51.738;21.652;2024-01-30T14:57:40;5.49;76.00
69162;DHT22;56269;51.738;21.652;2024-01-30T15:00:08;5.38;76.62
69162;DHT22;56269;51.738;21.652;2024-01-30T15:02:35;5.25;77.42
69162;DHT22;56269;51.738;21.652;2024-01-30T15:05:01;5.06;78.14
69162;DHT22;56269;51.738;21.652;2024-01-30T15:07:28;4.88;78.98
69162;DHT22;56269;51.738;21.652;2024-01-30T15:09:54;4.74;79.56
69162;DHT22;56269;51.738;21.652;2024-01-30T15:12:21;4.65;80.11
69162;DHT22;56269;51.738;21.652;2024-01-30T15:14:47;4.55;80.73
69162;DHT22;56269;51.738;21.652;2024-01-30T15:17:18;4.41;81.07
69162;DHT22;56269;51.738;21.652;2024-01-30T15:19:44;4.33;81.39
69162;DHT22;56269;51.738;21.652;2024-01-30T15:22:11;4.36;81.43
69162;DHT22;56269;51.738;21.652;2024-01-30T15:24:37;4.28;81.66